Time;durP1;ratioP1;P1;durP2;ratioP2;P2;SDS_P1;SDS_P2;PMS_P1;PMS_P2;Temp;Humidity;BMP_temperature;BMP_pressure;BME280_temperature;BME280_humidity;BME280_pressure;Samples;Min_cycle;Max_cycle;Signal;HPM_P1;HPM_P2
2024/02/25 00:00:49;;;;;;;;;;;;;;;14.96;56.85;99678.75;5032078;28;19909;-83
2024/02/25 00:03:14;;;;;;;;;;;;;;;14.94;57.02;99678.94;5046840;28;19921;-83
2024/02/25 00:05:41;;;;;;;;;;;;;;;14.91;57.71;99689.97;5046951;28;20272;-83
2024/02/25 00:08:06;;;;;;;;;;;;;;;14.87;56.93;99686.91;5030684;28;19913;-83
2024/02/25 00:10:32;;;;;;;;;;;;;;;14.84;57.39;99703.22;5047229;28;19920;-83
2024/02/25 00:12:57;;;;;;;;;;;;;;;14.84;57.20;99689.13;5047077;28;19920;-83
2024/02/25 00:15:22;;;;;;;;;;;;;;;14.81;57.74;99685.03;5030329;28;19999;-83
2024/02/25 00:17:48;;;;;;;;;;;;;;;14.81;57.50;99674.38;5031590;28;20000;-83
2024/02/25 00:20:13;;;;;;;;;;;;;;;14.82;57.70;99676.03;5031692;28;20305;-83
2024/02/25 00:22:38;;;;;;;;;;;;;;;14.82;57.40;99681.34;5030297;28;20254;-83
2024/02/25 00:25:04;;;;;;;;;;;;;;;14.84;55.79;99678.50;5030056;28;19925;-83
2024/02/25 00:27:29;;;;;;;;;;;;;;;14.83;56.22;99692.78;5031332;28;20302;-83
2024/02/25 00:29:54;;;;;;;;;;;;;;;14.80;56.41;99683.38;5031580;28;19914;-83
2024/02/25 00:32:20;;;;;;;;;;;;;;;14.78;57.24;99674.78;5032858;28;20437;-83
2024/02/25 00:34:46;;;;;;;;;;;;;;;14.79;57.31;99679.09;5035491;28;19967;-83
2024/02/25 00:37:11;;;;;;;;;;;;;;;14.79;57.60;99670.28;5035360;28;19913;-83
2024/02/25 00:39:36;;;;;;;;;;;;;;;14.78;57.16;99668.66;5035286;28;19913;-83
2024/02/25 00:42:02;;;;;;;;;;;;;;;14.79;57.35;99676.44;5033988;28;19913;-83
2024/02/25 00:44:27;;;;;;;;;;;;;;;14.80;57.08;99661.31;5050480;28;19952;-83
2024/02/25 00:46:53;;;;;;;;;;;;;;;14.77;57.01;99667.84;5035194;28;19920;-83
2024/02/25 00:49:18;;;;;;;;;;;;;;;14.78;56.55;99669.47;5035233;28;19913;-83
2024/02/25 00:51:44;;;;;;;;;;;;;;;14.78;56.30;99663.34;5034975;28;19974;-83
2024/02/25 00:54:09;;;;;;;;;;;;;;;14.78;56.62;99664.16;5033766;28;19917;-83
2024/02/25 00:56:34;;;;;;;;;;;;;;;14.77;56.84;99665.19;5033626;28;19960;-83
2024/02/25 00:58:59;;;;;;;;;;;;;;;14.78;56.83;99660.69;5035146;28;20003;-83
2024/02/25 01:01:25;;;;;;;;;;;;;;;14.80;56.62;99661.31;5034959;28;19928;-83
2024/02/25 01:03:50;;;;;;;;;;;;;;;14.80;56.64;99656.81;5033583;28;20306;-83
2024/02/25 01:06:15;;;;;;;;;;;;;;;14.78;56.92;99652.72;5033652;28;19924;-83
2024/02/25 01:08:41;;;;;;;;;;;;;;;14.76;56.86;99662.72;5050242;28;19913;-83
2024/02/25 01:11:06;;;;;;;;;;;;;;;14.74;56.28;99659.44;5035121;28;19913;-83
2024/02/25 01:13:33;;;;;;;;;;;;;;;14.71;57.67;99668.66;5033569;28;20382;-83
2024/02/25 01:16:02;;;;;;;;;;;;;;;14.66;57.18;99663.13;5034961;28;19992;-83
2024/02/25 01:18:27;;;;;;;;;;;;;;;14.66;56.49;99671.09;5033658;28;19919;-83
2024/02/25 01:20:52;;;;;;;;;;;;;;;14.62;57.14;99665.38;5050004;28;19991;-84
2024/02/25 01:23:17;;;;;;;;;;;;;;;14.59;56.93;99668.41;5033265;28;19921;-84
2024/02/25 01:25:43;;;;;;;;;;;;;;;14.58;57.24;99669.44;5034586;28;19924;-84
2024/02/25 01:28:08;;;;;;;;;;;;;;;14.53;58.24;99666.56;5034465;28;19996;-83
2024/02/25 01:30:34;;;;;;;;;;;;;;;14.51;58.13;99663.28;5049932;28;19921;-83
2024/02/25 01:32:59;;;;;;;;;;;;;;;14.52;58.02;99659.63;5034412;28;19913;-83
2024/02/25 01:35:24;;;;;;;;;;;;;;;14.53;57.73;99658.59;5034791;28;20284;-83
2024/02/25 01:37:49;;;;;;;;;;;;;;;14.51;57.58;99657.16;5034383;28;20042;-83
2024/02/25 01:40:15;;;;;;;;;;;;;;;14.50;57.89;99651.03;5049676;28;20401;-83
2024/02/25 01:42:40;;;;;;;;;;;;;;;14.51;57.32;99657.16;5033467;28;19948;-83
2024/02/25 01:45:06;;;;;;;;;;;;;;;14.53;57.72;99660.44;5033789;28;19917;-83
2024/02/25 01:47:31;;;;;;;;;;;;;;;14.56;57.71;99662.69;5034150;28;19913;-83
2024/02/25 01:49:57;;;;;;;;;;;;;;;14.57;57.95;99661.66;5032906;28;19920;-83
2024/02/25 01:52:24;;;;;;;;;;;;;;;14.59;57.40;99657.78;5049343;28;20468;-83
2024/02/25 01:54:50;;;;;;;;;;;;;;;14.60;57.21;99655.94;5034037;28;19952;-83
2024/02/25 01:57:15;;;;;;;;;;;;;;;14.65;57.23;99647.38;5033942;28;19913;-83
2024/02/25 01:59:41;;;;;;;;;;;;;;;14.66;57.40;99654.31;5049190;28;19913;-83
2024/02/25 02:02:13;;;;;;;;;;;;;;;14.69;57.21;99645.97;5049158;28;19921;-83
2024/02/25 02:04:38;;;;;;;;;;;;;;;14.71;57.45;99642.06;5033816;28;19967;-83
2024/02/25 02:07:03;;;;;;;;;;;;;;;14.69;57.43;99636.16;5033903;28;19920;-83
2024/02/25 02:09:30;;;;;;;;;;;;;;;14.70;57.45;99636.97;5033786;28;19920;-83
2024/02/25 02:11:58;;;;;;;;;;;;;;;14.70;57.50;99644.94;5033699;28;19913;-83
2024/02/25 02:14:24;;;;;;;;;;;;;;;14.72;57.50;99646.38;5033670;28;20390;-83
2024/02/25 02:16:49;;;;;;;;;;;;;;;14.73;56.96;99647.19;5033488;28;19913;-83
2024/02/25 02:19:14;;;;;;;;;;;;;;;14.71;57.43;99647.38;5048977;28;19913;-83
2024/02/25 02:21:39;;;;;;;;;;;;;;;14.71;57.63;99651.88;5048975;28;20302;-83
2024/02/25 02:24:06;;;;;;;;;;;;;;;14.71;57.57;99655.38;5032001;28;19918;-83
2024/02/25 02:26:31;;;;;;;;;;;;;;;14.71;57.49;99654.53;5033306;28;20009;-83
2024/02/25 02:28:57;;;;;;;;;;;;;;;14.71;57.84;99655.38;5033483;28;19956;-83
2024/02/25 02:31:22;;;;;;;;;;;;;;;14.71;57.63;99644.72;5033408;28;19967;-83
2024/02/25 02:33:49;;;;;;;;;;;;;;;14.69;57.68;99649.44;5033449;28;20376;-83
2024/02/25 02:36:14;;;;;;;;;;;;;;;14.67;57.64;99651.47;5032098;28;19970;-83
2024/02/25 02:38:39;;;;;;;;;;;;;;;14.67;57.74;99653.31;5032071;28;19913;-83
2024/02/25 02:41:06;;;;;;;;;;;;;;;14.66;57.58;99657.00;5033259;28;20285;-83
2024/02/25 02:43:31;;;;;;;;;;;;;;;14.64;57.89;99654.53;5033048;28;19917;-83
2024/02/25 02:45:56;;;;;;;;;;;;;;;14.61;58.26;99657.59;5033199;28;19920;-83
2024/02/25 02:48:21;;;;;;;;;;;;;;;14.59;57.94;99664.94;5033087;28;19920;-83
2024/02/25 02:50:47;;;;;;;;;;;;;;;14.54;58.13;99660.22;5031710;28;19913;-83
2024/02/25 02:53:12;;;;;;;;;;;;;;;14.51;57.97;99671.25;5048211;28;19913;-83
2024/02/25 02:55:37;;;;;;;;;;;;;;;14.47;58.01;99672.69;5048285;28;20378;-83
2024/02/25 02:58:03;;;;;;;;;;;;;;;14.46;58.17;99675.53;5048093;28;19912;-83
2024/02/25 03:00:28;;;;;;;;;;;;;;;14.44;57.91;99666.94;5032619;28;19924;-83
2024/02/25 03:02:53;;;;;;;;;;;;;;;14.46;58.56;99664.91;5031146;28;20376;-83
2024/02/25 03:05:19;;;;;;;;;;;;;;;14.49;58.75;99668.00;5032494;28;19917;-83
2024/02/25 03:07:49;;;;;;;;;;;;;;;14.53;58.49;99661.25;5032703;28;20409;-83
2024/02/25 03:10:14;;;;;;;;;;;;;;;14.57;57.76;99667.81;5032692;28;19923;-83
2024/02/25 03:12:39;;;;;;;;;;;;;;;14.58;58.47;99664.13;5032631;28;19987;-83
2024/02/25 03:15:05;;;;;;;;;;;;;;;14.61;58.56;99669.03;5048101;28;20286;-83
2024/02/25 03:17:30;;;;;;;;;;;;;;;14.63;58.84;99666.19;5032296;28;19964;-83
2024/02/25 03:19:55;;;;;;;;;;;;;;;14.61;59.03;99674.34;5032381;28;19913;-83
2024/02/25 03:22:21;;;;;;;;;;;;;;;14.62;58.47;99673.34;5032346;28;19913;-83
2024/02/25 03:24:46;;;;;;;;;;;;;;;14.66;58.40;99670.28;5032111;28;19975;-83
2024/02/25 03:27:11;;;;;;;;;;;;;;;14.68;58.32;99668.22;5032064;28;20393;-83
2024/02/25 03:29:39;;;;;;;;;;;;;;;14.69;58.43;99664.56;5032176;28;19920;-83
2024/02/25 03:32:04;;;;;;;;;;;;;;;14.67;58.54;99664.75;5032153;28;19987;-84
2024/02/25 03:34:30;;;;;;;;;;;;;;;14.67;58.54;99671.91;5032348;28;19960;-83
2024/02/25 03:36:55;;;;;;;;;;;;;;;14.67;59.02;99663.94;5047407;28;20329;-83
2024/02/25 03:39:20;;;;;;;;;;;;;;;14.69;58.87;99670.69;5030770;28;19920;-83
2024/02/25 03:41:45;;;;;;;;;;;;;;;14.72;57.86;99664.16;5030861;28;20305;-83
2024/02/25 03:44:11;;;;;;;;;;;;;;;14.68;58.78;99670.88;5031838;28;19924;-83
2024/02/25 03:46:36;;;;;;;;;;;;;;;14.64;59.51;99681.09;5031840;28;20318;-83
2024/02/25 03:49:01;;;;;;;;;;;;;;;14.63;60.91;99682.94;5047151;28;19909;-83
2024/02/25 03:51:26;;;;;;;;;;;;;;;14.65;59.11;99682.75;5047211;28;19913;-83
2024/02/25 03:53:52;;;;;;;;;;;;;;;14.65;59.24;99682.75;5031768;28;19913;-83
2024/02/25 03:56:17;;;;;;;;;;;;;;;14.64;60.31;99689.06;5032018;28;19982;-83
2024/02/25 03:58:42;;;;;;;;;;;;;;;14.67;60.13;99682.53;5031773;28;19924;-83
2024/02/25 04:01:07;;;;;;;;;;;;;;;14.67;59.01;99682.53;5046865;28;20363;-83
2024/02/25 04:03:33;;;;;;;;;;;;;;;14.68;60.15;99678.88;5030369;28;19971;-83
2024/02/25 04:05:58;;;;;;;;;;;;;;;14.70;61.95;99676.81;5046610;28;19914;-83
2024/02/25 04:08:24;;;;;;;;;;;;;;;14.69;60.80;99681.31;5031901;28;19913;-84
2024/02/25 04:10:49;;;;;;;;;;;;;;;14.70;61.38;99680.31;5030162;28;19913;-83
2024/02/25 04:13:15;;;;;;;;;;;;;;;14.72;60.75;99680.09;5031903;28;19922;-83
2024/02/25 04:15:40;;;;;;;;;;;;;;;14.72;58.46;99683.56;5031638;28;19909;-83
2024/02/25 04:18:06;;;;;;;;;;;;;;;14.73;60.60;99676.41;5046598;28;19917;-83
2024/02/25 04:20:31;;;;;;;;;;;;;;;14.73;60.81;99671.94;5046741;28;19967;-83
2024/02/25 04:22:56;;;;;;;;;;;;;;;14.74;60.91;99660.28;5046769;28;19913;-83
2024/02/25 04:25:21;;;;;;;;;;;;;;;14.74;60.47;99654.13;5031308;28;19956;-83
2024/02/25 04:27:47;;;;;;;;;;;;;;;14.74;60.04;99654.13;5030014;28;19913;-83
2024/02/25 04:30:12;;;;;;;;;;;;;;;14.72;60.13;99643.72;5031475;28;20305;-83
2024/02/25 04:32:43;;;;;;;;;;;;;;;14.68;60.94;99644.31;5031778;28;19919;-83
2024/02/25 04:35:08;;;;;;;;;;;;;;;14.70;60.53;99631.66;5031476;28;19913;-83
2024/02/25 04:37:34;;;;;;;;;;;;;;;14.68;60.53;99629.19;5030350;28;20365;-83
2024/02/25 04:40:00;;;;;;;;;;;;;;;14.72;59.46;99634.91;5030303;28;19936;-84
2024/02/25 04:42:26;;;;;;;;;;;;;;;14.72;59.31;99632.25;5046493;28;19920;-84
2024/02/25 04:44:51;;;;;;;;;;;;;;;14.72;61.18;99630.41;5031344;28;19917;-83
2024/02/25 04:47:16;;;;;;;;;;;;;;;14.74;62.37;99632.88;5030012;28;19913;-83
2024/02/25 04:49:41;;;;;;;;;;;;;;;14.72;62.44;99621.63;5031429;28;19999;-83
2024/02/25 04:52:10;;;;;;;;;;;;;;;14.74;60.50;99622.25;5031360;28;20308;-83
2024/02/25 04:54:36;;;;;;;;;;;;;;;14.74;61.53;99635.53;5046568;28;20270;-83
2024/02/25 04:57:01;;;;;;;;;;;;;;;14.75;60.87;99645.97;5031259;28;19920;-83
2024/02/25 04:59:27;;;;;;;;;;;;;;;14.71;63.26;99639.41;5031223;28;19932;-83
2024/02/25 05:01:53;;;;;;;;;;;;;;;14.71;62.33;99646.56;5031074;28;19921;-83
2024/02/25 05:04:18;;;;;;;;;;;;;;;14.72;62.31;99667.63;5030986;28;19917;-84
2024/02/25 05:06:43;;;;;;;;;;;;;;;14.71;62.48;99673.97;5029670;28;19992;-83
2024/02/25 05:09:09;;;;;;;;;;;;;;;14.73;63.40;99676.41;5030973;28;19917;-83
2024/02/25 05:11:34;;;;;;;;;;;;;;;14.72;60.64;99659.66;5046792;28;19923;-83
2024/02/25 05:14:00;;;;;;;;;;;;;;;14.73;61.65;99657.81;5031115;28;20008;-83
2024/02/25 05:16:25;;;;;;;;;;;;;;;14.71;61.73;99673.97;5046217;28;19999;-83
2024/02/25 05:18:50;;;;;;;;;;;;;;;14.73;62.11;99679.06;5033920;28;19996;-83
2024/02/25 05:21:16;;;;;;;;;;;;;;;14.74;62.99;99662.94;5034533;28;20297;-83
2024/02/25 05:23:41;;;;;;;;;;;;;;;14.76;62.79;99674.19;5034505;28;20381;-84
2024/02/25 05:26:07;;;;;;;;;;;;;;;14.76;62.36;99679.50;5034601;28;19967;-83
2024/02/25 05:28:32;;;;;;;;;;;;;;;14.76;63.32;99678.69;5033271;28;19913;-83
2024/02/25 05:30:57;;;;;;;;;;;;;;;14.72;64.37;99683.56;5034721;28;19919;-83
2024/02/25 05:33:23;;;;;;;;;;;;;;;14.72;63.04;99686.22;5034523;28;20007;-83
2024/02/25 05:35:48;;;;;;;;;;;;;;;14.75;62.74;99685.84;5033229;28;19913;-83
2024/02/25 05:38:14;;;;;;;;;;;;;;;14.81;62.90;99684.22;5034487;28;19937;-83
2024/02/25 05:40:41;;;;;;;;;;;;;;;14.82;62.79;99680.53;5049768;28;19913;-83
2024/02/25 05:43:07;;;;;;;;;;;;;;;14.85;63.25;99693.41;5049639;28;19972;-83
2024/02/25 05:45:32;;;;;;;;;;;;;;;14.86;62.69;99687.06;5034505;28;19913;-83
2024/02/25 05:47:58;;;;;;;;;;;;;;;14.86;63.02;99690.59;5049561;28;19945;-83
2024/02/25 05:50:23;;;;;;;;;;;;;;;14.88;62.99;99687.72;5034052;28;19966;-83
2024/02/25 05:52:48;;;;;;;;;;;;;;;14.87;63.33;99697.53;5034091;28;19913;-83
2024/02/25 05:55:14;;;;;;;;;;;;;;;14.88;63.04;99711.66;5049332;28;19976;-83
2024/02/25 05:57:39;;;;;;;;;;;;;;;14.89;62.72;99711.44;5034031;28;20313;-83
2024/02/25 06:00:05;;;;;;;;;;;;;;;14.90;62.76;99704.28;5033904;28;19979;-83
2024/02/25 06:02:30;;;;;;;;;;;;;;;14.92;62.44;99716.38;5033984;28;19921;-83
2024/02/25 06:04:55;;;;;;;;;;;;;;;14.95;62.64;99720.47;5033838;28;20305;-83
2024/02/25 06:07:24;;;;;;;;;;;;;;;14.96;62.55;99727.41;5049097;28;19913;-83
2024/02/25 06:09:49;;;;;;;;;;;;;;;14.99;62.22;99732.31;5033939;28;19917;-83
2024/02/25 06:12:14;;;;;;;;;;;;;;;15.01;63.39;99726.81;5032480;28;19913;-83
2024/02/25 06:14:40;;;;;;;;;;;;;;;15.01;62.72;99713.50;5049135;28;20403;-83
2024/02/25 06:17:05;;;;;;;;;;;;;;;15.03;62.41;99714.94;5033515;28;19987;-83
2024/02/25 06:19:33;;;;;;;;;;;;;;;15.07;62.53;99710.84;5033536;28;20107;-83
2024/02/25 06:21:58;;;;;;;;;;;;;;;15.07;61.73;99715.34;5048907;28;19999;-83
2024/02/25 06:24:24;;;;;;;;;;;;;;;15.07;62.61;99718.84;5033723;28;20367;-83
2024/02/25 06:26:49;;;;;;;;;;;;;;;15.07;62.80;99713.53;5033642;28;20012;-83
2024/02/25 06:29:16;;;;;;;;;;;;;;;15.09;62.41;99718.63;5032777;28;19923;-83
2024/02/25 06:31:44;;;;;;;;;;;;;;;15.09;62.49;99718.63;5048721;28;20346;-83
2024/02/25 06:34:09;;;;;;;;;;;;;;;15.12;62.32;99721.72;5032092;28;19988;-83
2024/02/25 06:36:34;;;;;;;;;;;;;;;15.16;62.56;99727.44;5033254;28;20004;-83
2024/02/25 06:38:59;;;;;;;;;;;;;;;15.19;62.30;99719.06;5033197;28;19913;-84
2024/02/25 06:41:25;;;;;;;;;;;;;;;15.22;62.57;99724.78;5048460;28;20309;-83
2024/02/25 06:43:54;;;;;;;;;;;;;;;15.25;62.27;99718.25;5033084;28;19964;-84
2024/02/25 06:46:19;;;;;;;;;;;;;;;15.28;62.53;99717.84;5033169;28;20347;-83
2024/02/25 06:48:45;;;;;;;;;;;;;;;15.31;62.58;99724.59;5031946;28;19920;-83
2024/02/25 06:51:20;;;;;;;;;;;;;;;15.34;62.34;99724.19;5033221;28;19913;-84
2024/02/25 06:53:45;;;;;;;;;;;;;;;15.37;62.26;99723.75;5033059;28;19920;-83
2024/02/25 06:56:10;;;;;;;;;;;;;;;15.40;61.98;99729.50;5033049;28;19913;-83
2024/02/25 06:58:36;;;;;;;;;;;;;;;15.44;62.32;99729.91;5031538;28;19960;-83
2024/02/25 07:01:01;;;;;;;;;;;;;;;15.46;62.06;99727.84;5047876;28;20417;-83
2024/02/25 07:03:26;;;;;;;;;;;;;;;15.52;62.34;99721.72;5047998;28;20017;-83
2024/02/25 07:05:51;;;;;;;;;;;;;;;15.56;61.58;99712.28;5032932;28;20305;-83
2024/02/25 07:08:17;;;;;;;;;;;;;;;15.59;61.74;99719.91;5031510;28;19963;-83
2024/02/25 07:10:42;;;;;;;;;;;;;;;15.60;59.80;99716.22;5047878;28;19919;-83
2024/02/25 07:13:07;;;;;;;;;;;;;;;15.63;61.97;99717.66;5032561;28;19913;-83
2024/02/25 07:15:33;;;;;;;;;;;;;;;15.67;62.24;99709.06;5032366;28;19917;-83
2024/02/25 07:17:58;;;;;;;;;;;;;;;15.73;61.66;99716.22;5031043;28;19988;-83
2024/02/25 07:20:23;;;;;;;;;;;;;;;15.78;61.16;99712.94;5030932;28;19921;-83
2024/02/25 07:22:49;;;;;;;;;;;;;;;15.84;60.75;99706.78;5032260;28;20352;-83
2024/02/25 07:25:14;;;;;;;;;;;;;;;15.92;61.14;99705.75;5032341;28;19928;-83
2024/02/25 07:27:40;;;;;;;;;;;;;;;15.95;62.12;99708.00;5032381;28;19920;-83
2024/02/25 07:30:05;;;;;;;;;;;;;;;15.99;62.04;99710.03;5047675;28;19921;-83
2024/02/25 07:32:31;;;;;;;;;;;;;;;16.05;60.73;99703.03;5031062;28;19913;-83
2024/02/25 07:34:58;;;;;;;;;;;;;;;16.09;61.34;99704.25;5030878;28;19919;-83
2024/02/25 07:37:23;;;;;;;;;;;;;;;16.12;61.09;99712.66;5032284;28;20317;-83
2024/02/25 07:39:48;;;;;;;;;;;;;;;16.14;60.78;99709.78;5031978;28;20003;-83
2024/02/25 07:42:13;;;;;;;;;;;;;;;16.18;59.16;99721.66;5031157;28;19917;-83
2024/02/25 07:44:39;;;;;;;;;;;;;;;16.15;59.94;99712.22;5030455;28;19917;-83
2024/02/25 07:47:04;;;;;;;;;;;;;;;16.17;60.08;99720.00;5047355;28;19917;-83
2024/02/25 07:49:29;;;;;;;;;;;;;;;16.16;61.11;99705.88;5031755;28;20356;-83
2024/02/25 07:51:55;;;;;;;;;;;;;;;16.20;60.53;99703.63;5031838;28;19913;-83
2024/02/25 07:54:21;;;;;;;;;;;;;;;16.25;60.66;99716.28;5030610;28;19913;-83
2024/02/25 07:56:46;;;;;;;;;;;;;;;16.27;60.20;99712.41;5030622;28;19913;-83
2024/02/25 07:59:11;;;;;;;;;;;;;;;16.24;60.49;99706.66;5032136;28;19914;-83
2024/02/25 08:01:36;;;;;;;;;;;;;;;16.25;60.74;99708.31;5031900;28;19930;-83
2024/02/25 08:04:02;;;;;;;;;;;;;;;16.20;60.41;99711.59;5030479;28;20071;-83
2024/02/25 08:06:28;;;;;;;;;;;;;;;16.17;60.27;99712.84;5031528;28;19917;-83
2024/02/25 08:08:53;;;;;;;;;;;;;;;16.19;61.40;99715.28;5031631;28;20325;-83
2024/02/25 08:11:19;;;;;;;;;;;;;;;16.20;60.80;99723.06;5031698;28;20377;-83
2024/02/25 08:13:44;;;;;;;;;;;;;;;16.29;59.90;99721.00;5031742;28;20374;-83
2024/02/25 08:16:09;;;;;;;;;;;;;;;16.31;61.01;99723.44;5031832;28;19913;-83
2024/02/25 08:18:36;;;;;;;;;;;;;;;16.33;60.51;99727.53;5031883;28;19920;-83
2024/02/25 08:21:02;;;;;;;;;;;;;;;16.42;59.01;99728.97;5031809;28;19913;-84
2024/02/25 08:23:27;;;;;;;;;;;;;;;16.47;59.72;99723.81;5031679;28;19913;-83
2024/02/25 08:25:52;;;;;;;;;;;;;;;16.53;59.13;99722.16;5030387;28;19936;-84
2024/02/25 08:28:18;;;;;;;;;;;;;;;16.57;60.29;99715.38;5031546;28;20046;-83
2024/02/25 08:30:43;;;;;;;;;;;;;;;16.65;60.13;99716.97;5031762;28;19913;-84
2024/02/25 08:33:08;;;;;;;;;;;;;;;16.69;59.01;99721.69;5031614;28;20393;-83
2024/02/25 08:35:34;;;;;;;;;;;;;;;16.79;58.81;99715.91;5030499;28;19913;-83
2024/02/25 08:37:59;;;;;;;;;;;;;;;16.80;59.44;99706.88;5030512;28;20353;-83
2024/02/25 08:40:25;;;;;;;;;;;;;;;16.79;58.95;99686.56;5032355;28;19921;-83
2024/02/25 08:42:51;;;;;;;;;;;;;;;16.88;58.72;99703.13;5042932;28;20380;-83
2024/02/25 08:45:17;;;;;;;;;;;;;;;16.87;59.13;99682.81;5031048;28;19923;-83
2024/02/25 08:47:42;;;;;;;;;;;;;;;16.91;58.75;99690.19;5030999;28;19921;-83
2024/02/25 08:50:08;;;;;;;;;;;;;;;16.90;58.66;99695.72;5031256;28;20020;-83
2024/02/25 08:52:33;;;;;;;;;;;;;;;16.92;59.77;99694.47;5032609;28;19956;-83
2024/02/25 08:54:58;;;;;;;;;;;;;;;16.99;58.20;99697.91;5035171;28;20378;-83
2024/02/25 08:57:24;;;;;;;;;;;;;;;16.96;59.02;99700.19;5035290;28;19990;-83
2024/02/25 08:59:49;;;;;;;;;;;;;;;17.03;58.95;99690.31;5035183;28;19917;-83
2024/02/25 09:02:14;;;;;;;;;;;;;;;17.12;58.31;99691.69;5034757;28;20398;-83
2024/02/25 09:04:40;;;;;;;;;;;;;;;17.14;58.47;99690.44;5034798;28;19917;-83
2024/02/25 09:07:05;;;;;;;;;;;;;;;17.20;58.14;99687.94;5035023;28;20393;-83
2024/02/25 09:09:31;;;;;;;;;;;;;;;17.23;58.13;99682.19;5034968;28;20055;-83
2024/02/25 09:11:57;;;;;;;;;;;;;;;17.20;58.69;99690.63;5034824;28;19914;-83
2024/02/25 09:14:22;;;;;;;;;;;;;;;17.17;58.04;99683.88;5034874;28;20318;-83
2024/02/25 09:16:47;;;;;;;;;;;;;;;17.18;57.82;99679.34;5033590;28;19921;-83
2024/02/25 09:19:13;;;;;;;;;;;;;;;17.18;58.17;99676.69;5034828;28;19920;-83
2024/02/25 09:21:38;;;;;;;;;;;;;;;17.21;57.71;99674.38;5034633;28;20333;-83
2024/02/25 09:24:04;;;;;;;;;;;;;;;17.23;57.94;99676.84;5033651;28;19978;-83
2024/02/25 09:26:29;;;;;;;;;;;;;;;17.22;58.14;99675.22;5033250;28;19913;-83
2024/02/25 09:28:55;;;;;;;;;;;;;;;17.23;57.77;99663.50;5033156;28;20004;-83
2024/02/25 09:31:20;;;;;;;;;;;;;;;17.24;58.05;99662.47;5033027;28;19942;-83
2024/02/25 09:33:45;;;;;;;;;;;;;;;17.30;57.64;99666.94;5034270;28;20345;-83
2024/02/25 09:36:11;;;;;;;;;;;;;;;17.32;57.69;99662.19;5034488;28;20009;-83
2024/02/25 09:38:36;;;;;;;;;;;;;;;17.34;57.92;99654.78;5034439;28;20031;-83
2024/02/25 09:41:02;;;;;;;;;;;;;;;17.38;57.52;99670.13;5049758;28;20357;-83
2024/02/25 09:43:27;;;;;;;;;;;;;;;17.45;57.44;99664.72;5049716;28;19913;-83
2024/02/25 09:45:55;;;;;;;;;;;;;;;17.48;57.48;99651.75;5033263;28;20382;-83
2024/02/25 09:48:21;;;;;;;;;;;;;;;17.58;57.21;99653.94;5034627;28;19909;-83
2024/02/25 09:50:50;;;;;;;;;;;;;;;17.59;56.99;99647.56;5034601;28;19920;-83
2024/02/25 09:53:15;;;;;;;;;;;;;;;17.67;57.19;99638.47;5034537;28;19913;-83
2024/02/25 09:55:43;;;;;;;;;;;;;;;17.78;56.76;99629.72;5031310;28;20413;-83
2024/02/25 09:58:08;;;;;;;;;;;;;;;17.90;56.25;99632.50;5033974;28;19913;-83
2024/02/25 10:00:33;;;;;;;;;;;;;;;17.90;56.14;99632.50;5033850;28;20003;-83
2024/02/25 10:02:59;;;;;;;;;;;;;;;17.89;56.05;99622.84;5033730;28;20409;-83
2024/02/25 10:05:24;;;;;;;;;;;;;;;17.89;56.09;99612.16;5031492;28;19925;-83
2024/02/25 10:08:13;;;;;;;;;;;;;;;17.93;55.99;99621.34;5033863;28;19913;-83
2024/02/25 10:10:41;;;;;;;;;;;;;;;18.02;55.92;99618.16;5032437;28;20376;-84
2024/02/25 10:13:07;;;;;;;;;;;;;;;18.06;55.46;99613.19;5033723;28;19920;-83
2024/02/25 10:15:32;;;;;;;;;;;;;;;18.07;55.69;99602.25;5032353;28;19913;-83
2024/02/25 10:17:58;;;;;;;;;;;;;;;18.17;55.36;99603.59;5033630;28;20317;-82
2024/02/25 10:20:24;;;;;;;;;;;;;;;18.23;55.04;99600.81;5033511;28;20413;-84
2024/02/25 10:23:05;;;;;;;;;;;;;;;18.26;54.48;99597.69;5033423;28;19913;-83
2024/02/25 10:25:31;;;;;;;;;;;;;;;18.35;54.88;99592.84;5033302;28;19947;-84
2024/02/25 10:28:10;;;;;;;;;;;;;;;18.47;54.48;99590.22;5032077;28;20370;-83
2024/02/25 10:30:35;;;;;;;;;;;;;;;18.50;54.37;99587.09;5032231;28;19920;-83
2024/02/25 10:33:12;;;;;;;;;;;;;;;18.48;54.20;99579.28;5033433;28;19913;-83
2024/02/25 10:35:37;;;;;;;;;;;;;;;18.63;54.14;99581.59;5032086;28;19913;-83
2024/02/25 10:38:03;;;;;;;;;;;;;;;18.82;53.28;99577.78;5033197;28;20386;-83
2024/02/25 10:40:28;;;;;;;;;;;;;;;19.02;52.88;99572.09;5033251;28;19913;-83
2024/02/25 10:42:54;;;;;;;;;;;;;;;19.21;52.47;99570.94;5033425;28;19913;-83
2024/02/25 10:45:20;;;;;;;;;;;;;;;19.36;52.17;99573.16;5033357;28;20314;-83
2024/02/25 10:47:47;;;;;;;;;;;;;;;19.36;51.63;99570.50;5033150;28;19940;-83
2024/02/25 10:50:12;;;;;;;;;;;;;;;19.28;51.90;99573.50;5031817;28;19920;-83
2024/02/25 10:52:38;;;;;;;;;;;;;;;19.20;51.86;99557.78;5031698;28;20317;-83
2024/02/25 10:55:03;;;;;;;;;;;;;;;19.17;52.20;99545.69;5032917;28;19914;-83
2024/02/25 10:57:31;;;;;;;;;;;;;;;19.17;51.99;99551.03;5032972;28;20382;-83
2024/02/25 10:59:56;;;;;;;;;;;;;;;19.12;52.10;99547.44;5032964;28;19917;-83
2024/02/25 11:02:26;;;;;;;;;;;;;;;19.09;51.99;99545.22;5032778;28;19928;-83
2024/02/25 11:04:51;;;;;;;;;;;;;;;19.01;52.16;99544.53;5032850;28;19923;-83
2024/02/25 11:07:17;;;;;;;;;;;;;;;18.97;52.35;99526.50;5031566;28;20002;-83
2024/02/25 11:09:45;;;;;;;;;;;;;;;18.99;52.30;99533.25;5032736;28;19920;-83
2024/02/25 11:12:21;;;;;;;;;;;;;;;18.94;52.46;99532.31;5031179;28;20444;-83
2024/02/25 11:15:06;;;;;;;;;;;;;;;18.95;52.29;99517.91;5032444;28;19913;-83
2024/02/25 11:17:35;;;;;;;;;;;;;;;18.96;52.46;99517.66;5031695;28;19913;-84
2024/02/25 11:20:00;;;;;;;;;;;;;;;18.98;52.30;99515.56;5032523;28;19920;-83
2024/02/25 11:22:42;;;;;;;;;;;;;;;19.19;52.32;99508.78;5031098;28;19912;-83
2024/02/25 11:25:26;;;;;;;;;;;;;;;19.68;51.69;99501.28;5030979;28;20021;-83
2024/02/25 11:27:58;;;;;;;;;;;;;;;20.09;50.96;99496.72;5030907;28;19921;-83
2024/02/25 11:30:47;;;;;;;;;;;;;;;20.11;50.51;99498.09;5030924;28;19920;-83
2024/02/25 11:33:22;;;;;;;;;;;;;;;19.97;50.29;99500.22;5032324;28;19920;-83
2024/02/25 11:35:49;;;;;;;;;;;;;;;19.92;50.21;99500.13;5032134;28;19913;-83
2024/02/25 11:38:14;;;;;;;;;;;;;;;19.80;49.88;99495.88;5030874;28;20412;-83
2024/02/25 11:40:39;;;;;;;;;;;;;;;19.68;49.98;99502.09;5030635;28;19913;-84
2024/02/25 11:43:05;;;;;;;;;;;;;;;19.60;50.88;99483.72;5030637;28;19913;-83
2024/02/25 11:45:31;;;;;;;;;;;;;;;19.50;50.91;99490.72;5030521;28;20339;-82
2024/02/25 11:47:57;;;;;;;;;;;;;;;19.37;50.63;99489.13;5031873;28;19920;-83
2024/02/25 11:50:25;;;;;;;;;;;;;;;19.29;50.63;99495.63;5031688;28;20399;-83
2024/02/25 11:53:08;;;;;;;;;;;;;;;19.22;50.59;99486.09;5031691;28;19970;-82
2024/02/25 11:55:33;;;;;;;;;;;;;;;19.18;51.05;99483.09;5031522;28;19920;-83
2024/02/25 11:57:59;;;;;;;;;;;;;;;19.13;51.24;99485.66;5031582;28;19913;-84
2024/02/25 12:00:24;;;;;;;;;;;;;;;19.05;51.20;99484.16;5031987;28;19913;-83
2024/02/25 12:02:50;;;;;;;;;;;;;;;18.99;51.42;99476.25;5031440;28;19929;-83
2024/02/25 12:05:15;;;;;;;;;;;;;;;18.91;51.31;99479.28;5031732;28;19921;-83
2024/02/25 12:07:43;;;;;;;;;;;;;;;18.89;51.46;99478.69;5031957;28;19919;-83
2024/02/25 12:10:09;;;;;;;;;;;;;;;18.85;51.65;99472.19;5031646;28;19917;-82
2024/02/25 12:12:34;;;;;;;;;;;;;;;18.72;51.82;99478.59;5031491;28;20329;-82
2024/02/25 12:14:59;;;;;;;;;;;;;;;18.61;51.75;99484.72;5031449;28;19935;-83
2024/02/25 12:17:25;;;;;;;;;;;;;;;18.54;52.49;99487.47;5030132;28;20027;-81
2024/02/25 12:19:53;;;;;;;;;;;;;;;18.43;53.30;99496.28;5031581;28;19987;-82
2024/02/25 12:22:21;;;;;;;;;;;;;;;18.30;54.38;99499.97;5031670;28;19913;-82
2024/02/25 12:24:49;;;;;;;;;;;;;;;18.20;54.20;99497.06;5031472;28;19923;-83
2024/02/25 12:27:18;;;;;;;;;;;;;;;18.07;54.80;99478.53;5031086;28;19913;-84
2024/02/25 12:29:47;;;;;;;;;;;;;;;17.86;57.40;99469.19;5032148;28;20386;-85
2024/02/25 12:32:13;;;;;;;;;;;;;;;17.72;57.39;99481.88;5033718;28;19913;-87
2024/02/25 12:34:38;;;;;;;;;;;;;;;17.60;58.00;99475.63;5031456;28;19996;-86
2024/02/25 12:37:04;;;;;;;;;;;;;;;17.54;57.74;99478.41;5031545;28;20011;-87
2024/02/25 12:39:29;;;;;;;;;;;;;;;17.45;57.61;99486.72;5031721;28;20485;-87
2024/02/25 12:42:05;;;;;;;;;;;;;;;17.38;57.73;99472.63;5030140;28;19920;-87